EZY66X EGAC-EGCC
Flight info
| Callsign | EZY66X |
|---|---|
| Flight time | N/A |
| Altitude | 23000 |
| Route | DUFFY L15 PEPOD Q38 MAKUX |
| Aircraft | A320/M-SDE2E3FGHIJ1RWXYZ/LB1 |
Departure
| Time | N/A |
|---|---|
| Airport | George Best Belfast City Airport (EGAC) |
Arrival
| Time | 2026-05-05 16:23 |
|---|---|
| Airport | Manchester Airport (EGCC) |
| Time | Latitude | Longitude | Altitude | Speed | Heading |
|---|---|---|---|---|---|
| 2026-05-05 16:13 | 53.37616 | -2.71760 | 3989 ft | 224 kts | 250° |
| 2026-05-05 16:14 | 53.36133 | -2.75953 | 3989 ft | 206 kts | 235° |
| 2026-05-05 16:14 | 53.34374 | -2.79298 | 4006 ft | 189 kts | 205° |
| 2026-05-05 16:15 | 53.31877 | -2.78501 | 3981 ft | 194 kts | 148° |
| 2026-05-05 16:15 | 53.29670 | -2.75910 | 3992 ft | 194 kts | 145° |
| 2026-05-05 16:16 | 53.27485 | -2.73263 | 3988 ft | 194 kts | 145° |
| 2026-05-05 16:16 | 53.25404 | -2.70367 | 3985 ft | 194 kts | 136° |
| 2026-05-05 16:17 | 53.23972 | -2.66565 | 3696 ft | 194 kts | 116° |
| 2026-05-05 16:17 | 53.23405 | -2.64526 | 3509 ft | 194 kts | 115° |
| 2026-05-05 16:18 | 53.22290 | -2.60449 | 3488 ft | 194 kts | 115° |
| 2026-05-05 16:18 | 53.21733 | -2.58395 | 3487 ft | 194 kts | 112° |
| 2026-05-05 16:18 | 53.22234 | -2.54298 | 3488 ft | 193 kts | 43° |
| 2026-05-05 16:19 | 53.23152 | -2.52660 | 3482 ft | 194 kts | 49° |
| 2026-05-05 16:19 | 53.23995 | -2.50928 | 3441 ft | 185 kts | 50° |
| 2026-05-05 16:19 | 53.25514 | -2.47800 | 3064 ft | 171 kts | 50° |
| 2026-05-05 16:20 | 53.27011 | -2.44727 | 2624 ft | 170 kts | 50° |
| 2026-05-05 16:20 | 53.28499 | -2.41670 | 2167 ft | 169 kts | 50° |
| 2026-05-05 16:21 | 53.29975 | -2.38634 | 1729 ft | 168 kts | 50° |
| 2026-05-05 16:22 | 53.32169 | -2.34116 | 1066 ft | 167 kts | 50° |
| 2026-05-05 16:22 | 53.33622 | -2.31118 | 622 ft | 165 kts | 50° |
| 2026-05-05 16:23 | 53.35031 | -2.28189 | 237 ft | 149 kts | 50° |
| 2026-05-05 16:23 | 53.35577 | -2.27081 | 244 ft | 92 kts | 50° |
| 2026-05-05 16:23 | 53.36048 | -2.26132 | 255 ft | 8 kts | 7° |
| 2026-05-05 16:24 | 53.36090 | -2.26191 | 256 ft | 9 kts | 318° |
| 2026-05-05 16:24 | 53.36119 | -2.26228 | 256 ft | 0 kts | 320° |
| 2026-05-05 16:25 | 53.36134 | -2.26328 | 255 ft | 16 kts | 243° |
| 2026-05-05 16:25 | 53.36052 | -2.26501 | 253 ft | 21 kts | 239° |
| 2026-05-05 16:26 | 53.36120 | -2.26753 | 244 ft | 0 kts | 323° |